sensor_id;sensor_type;location;lat;lon;timestamp;pressure;altitude;pressure_sealevel;temperature;humidity
36222;BME280;22266;52.340;4.962;2023-04-28T00:00:00;101409.63;;;10.58;48.41
36222;BME280;22266;52.340;4.962;2023-04-28T00:02:30;101402.19;;;10.60;48.22
36222;BME280;22266;52.340;4.962;2023-04-28T00:04:57;101409.91;;;10.63;48.14
36222;BME280;22266;52.340;4.962;2023-04-28T00:07:23;101403.56;;;10.56;48.27
36222;BME280;22266;52.340;4.962;2023-04-28T00:09:50;101406.53;;;10.61;48.90
36222;BME280;22266;52.340;4.962;2023-04-28T00:12:16;101390.88;;;10.64;48.68
36222;BME280;22266;52.340;4.962;2023-04-28T00:14:43;101382.06;;;10.71;48.55
36222;BME280;22266;52.340;4.962;2023-04-28T00:17:09;101368.69;;;10.77;48.59
36222;BME280;22266;52.340;4.962;2023-04-28T00:19:36;101369.38;;;10.79;48.06
36222;BME280;22266;52.340;4.962;2023-04-28T00:22:04;101379.38;;;10.71;48.85
36222;BME280;22266;52.340;4.962;2023-04-28T00:24:31;101362.41;;;10.70;48.56
36222;BME280;22266;52.340;4.962;2023-04-28T00:26:59;101360.53;;;10.71;48.25
36222;BME280;22266;52.340;4.962;2023-04-28T00:29:28;101352.94;;;10.74;48.61
36222;BME280;22266;52.340;4.962;2023-04-28T00:31:54;101352.19;;;10.66;48.32
36222;BME280;22266;52.340;4.962;2023-04-28T00:34:21;101361.78;;;10.60;48.57
36222;BME280;22266;52.340;4.962;2023-04-28T00:36:48;101365.88;;;10.56;48.90
36222;BME280;22266;52.340;4.962;2023-04-28T00:39:15;101353.72;;;10.60;49.33
36222;BME280;22266;52.340;4.962;2023-04-28T00:41:43;101352.06;;;10.59;49.07
36222;BME280;22266;52.340;4.962;2023-04-28T00:44:10;101354.00;;;10.65;49.34
36222;BME280;22266;52.340;4.962;2023-04-28T00:46:40;101344.75;;;10.68;49.41
36222;BME280;22266;52.340;4.962;2023-04-28T00:49:07;101342.31;;;10.73;49.80
36222;BME280;22266;52.340;4.962;2023-04-28T00:51:34;101335.28;;;10.72;49.90
36222;BME280;22266;52.340;4.962;2023-04-28T00:54:01;101326.56;;;10.70;50.33
36222;BME280;22266;52.340;4.962;2023-04-28T00:56:28;101312.97;;;10.63;49.76
36222;BME280;22266;52.340;4.962;2023-04-28T00:58:57;101323.19;;;10.68;50.29
36222;BME280;22266;52.340;4.962;2023-04-28T01:01:24;101313.25;;;10.68;49.49
36222;BME280;22266;52.340;4.962;2023-04-28T01:03:50;101309.81;;;10.59;49.81
36222;BME280;22266;52.340;4.962;2023-04-28T01:06:19;101312.03;;;10.56;49.23
36222;BME280;22266;52.340;4.962;2023-04-28T01:08:48;101308.09;;;10.44;48.84
36222;BME280;22266;52.340;4.962;2023-04-28T01:11:16;101297.88;;;10.39;49.41
36222;BME280;22266;52.340;4.962;2023-04-28T01:14:01;101307.94;;;10.45;49.74
36222;BME280;22266;52.340;4.962;2023-04-28T01:16:34;101302.16;;;10.48;49.50
36222;BME280;22266;52.340;4.962;2023-04-28T01:19:01;101304.38;;;10.45;48.95
36222;BME280;22266;52.340;4.962;2023-04-28T01:21:33;101293.34;;;10.39;49.21
36222;BME280;22266;52.340;4.962;2023-04-28T01:24:13;101293.22;;;10.33;49.29
36222;BME280;22266;52.340;4.962;2023-04-28T01:26:40;101290.25;;;10.28;49.60
36222;BME280;22266;52.340;4.962;2023-04-28T01:29:06;101299.34;;;10.27;48.97
36222;BME280;22266;52.340;4.962;2023-04-28T01:31:32;101295.13;;;10.24;49.37
36222;BME280;22266;52.340;4.962;2023-04-28T01:33:59;101295.28;;;10.31;49.41
36222;BME280;22266;52.340;4.962;2023-04-28T01:36:26;101294.91;;;10.34;49.41
36222;BME280;22266;52.340;4.962;2023-04-28T01:38:54;101291.56;;;10.32;49.49
36222;BME280;22266;52.340;4.962;2023-04-28T01:41:20;101291.28;;;10.27;49.67
36222;BME280;22266;52.340;4.962;2023-04-28T01:43:47;101284.22;;;10.26;49.42
36222;BME280;22266;52.340;4.962;2023-04-28T01:46:14;101279.72;;;10.18;49.29
36222;BME280;22266;52.340;4.962;2023-04-28T01:48:41;101274.03;;;10.13;49.55
36222;BME280;22266;52.340;4.962;2023-04-28T01:51:07;101268.00;;;10.11;49.79
36222;BME280;22266;52.340;4.962;2023-04-28T01:53:37;101266.50;;;10.08;49.66
36222;BME280;22266;52.340;4.962;2023-04-28T01:56:04;101267.47;;;9.93;49.82
36222;BME280;22266;52.340;4.962;2023-04-28T01:58:30;101270.53;;;9.89;50.07
36222;BME280;22266;52.340;4.962;2023-04-28T02:00:57;101270.34;;;9.91;50.48
36222;BME280;22266;52.340;4.962;2023-04-28T02:03:24;101274.34;;;9.95;50.02
36222;BME280;22266;52.340;4.962;2023-04-28T02:05:50;101268.59;;;9.98;50.95
36222;BME280;22266;52.340;4.962;2023-04-28T02:08:17;101262.88;;;10.01;50.19
36222;BME280;22266;52.340;4.962;2023-04-28T02:10:44;101272.41;;;10.04;50.15
36222;BME280;22266;52.340;4.962;2023-04-28T02:13:10;101260.47;;;10.06;49.76
36222;BME280;22266;52.340;4.962;2023-04-28T02:15:41;101261.72;;;9.96;49.33
36222;BME280;22266;52.340;4.962;2023-04-28T02:18:09;101259.22;;;9.94;50.25
36222;BME280;22266;52.340;4.962;2023-04-28T02:20:38;101254.19;;;9.91;50.10
36222;BME280;22266;52.340;4.962;2023-04-28T02:23:06;101245.31;;;9.90;50.28
36222;BME280;22266;52.340;4.962;2023-04-28T02:25:33;101252.34;;;9.91;50.78
36222;BME280;22266;52.340;4.962;2023-04-28T02:27:59;101240.59;;;9.93;50.84
36222;BME280;22266;52.340;4.962;2023-04-28T02:30:26;101229.38;;;10.04;51.09
36222;BME280;22266;52.340;4.962;2023-04-28T02:32:54;101222.75;;;9.91;51.09
36222;BME280;22266;52.340;4.962;2023-04-28T02:35:21;101214.81;;;9.98;51.32
36222;BME280;22266;52.340;4.962;2023-04-28T02:37:47;101219.38;;;9.98;51.57
36222;BME280;22266;52.340;4.962;2023-04-28T02:40:14;101223.72;;;9.99;51.65
36222;BME280;22266;52.340;4.962;2023-04-28T02:42:40;101209.09;;;10.01;52.09
36222;BME280;22266;52.340;4.962;2023-04-28T02:45:07;101211.84;;;9.93;51.77
36222;BME280;22266;52.340;4.962;2023-04-28T02:47:34;101202.16;;;9.84;52.19
36222;BME280;22266;52.340;4.962;2023-04-28T02:50:00;101201.56;;;9.74;52.87
36222;BME280;22266;52.340;4.962;2023-04-28T02:52:27;101201.09;;;9.70;53.00
36222;BME280;22266;52.340;4.962;2023-04-28T02:54:53;101196.56;;;9.71;52.81
36222;BME280;22266;52.340;4.962;2023-04-28T02:57:23;101195.59;;;9.63;52.99
36222;BME280;22266;52.340;4.962;2023-04-28T02:59:50;101193.91;;;9.62;52.75
36222;BME280;22266;52.340;4.962;2023-04-28T03:02:16;101193.09;;;9.62;53.29
36222;BME280;22266;52.340;4.962;2023-04-28T03:04:43;101195.72;;;9.70;53.11
36222;BME280;22266;52.340;4.962;2023-04-28T03:07:09;101193.88;;;9.71;53.46
36222;BME280;22266;52.340;4.962;2023-04-28T03:09:36;101179.94;;;9.67;53.07
36222;BME280;22266;52.340;4.962;2023-04-28T03:12:02;101179.22;;;9.73;53.07
36222;BME280;22266;52.340;4.962;2023-04-28T03:14:31;101163.19;;;9.80;53.20
36222;BME280;22266;52.340;4.962;2023-04-28T03:16:57;101152.63;;;9.78;52.84
36222;BME280;22266;52.340;4.962;2023-04-28T03:19:24;101156.22;;;9.71;53.04
36222;BME280;22266;52.340;4.962;2023-04-28T03:21:51;101145.75;;;9.76;53.68
36222;BME280;22266;52.340;4.962;2023-04-28T03:24:18;101138.09;;;9.73;53.80
36222;BME280;22266;52.340;4.962;2023-04-28T03:26:44;101121.75;;;9.74;53.81
36222;BME280;22266;52.340;4.962;2023-04-28T03:29:11;101119.53;;;9.78;53.75
36222;BME280;22266;52.340;4.962;2023-04-28T03:31:37;101126.22;;;9.82;53.69
36222;BME280;22266;52.340;4.962;2023-04-28T03:34:04;101116.50;;;9.81;54.02
36222;BME280;22266;52.340;4.962;2023-04-28T03:36:31;101103.88;;;9.81;53.50
36222;BME280;22266;52.340;4.962;2023-04-28T03:39:05;101098.19;;;9.76;53.57
36222;BME280;22266;52.340;4.962;2023-04-28T03:41:33;101105.44;;;9.76;53.73
36222;BME280;22266;52.340;4.962;2023-04-28T03:44:17;101099.13;;;9.69;53.70
36222;BME280;22266;52.340;4.962;2023-04-28T03:46:46;101089.94;;;9.63;53.95
36222;BME280;22266;52.340;4.962;2023-04-28T03:49:14;101088.63;;;9.59;53.94
36222;BME280;22266;52.340;4.962;2023-04-28T03:51:40;101085.09;;;9.58;54.09
36222;BME280;22266;52.340;4.962;2023-04-28T03:54:08;101074.63;;;9.63;54.32
36222;BME280;22266;52.340;4.962;2023-04-28T03:56:34;101078.94;;;9.73;54.09
36222;BME280;22266;52.340;4.962;2023-04-28T03:59:02;101092.47;;;9.79;54.13
36222;BME280;22266;52.340;4.962;2023-04-28T04:01:29;101086.81;;;9.74;53.62
36222;BME280;22266;52.340;4.962;2023-04-28T04:03:55;101087.34;;;9.70;54.20
36222;BME280;22266;52.340;4.962;2023-04-28T04:06:22;101088.19;;;9.70;54.50
36222;BME280;22266;52.340;4.962;2023-04-28T04:08:49;101083.16;;;9.67;53.90
36222;BME280;22266;52.340;4.962;2023-04-28T04:11:16;101075.47;;;9.64;54.48
36222;BME280;22266;52.340;4.962;2023-04-28T04:13:42;101081.22;;;9.61;55.05
36222;BME280;22266;52.340;4.962;2023-04-28T04:16:13;101080.56;;;9.59;54.88
36222;BME280;22266;52.340;4.962;2023-04-28T04:18:41;101088.63;;;9.59;54.89
36222;BME280;22266;52.340;4.962;2023-04-28T04:21:17;101076.50;;;9.63;54.50
36222;BME280;22266;52.340;4.962;2023-04-28T04:23:44;101080.84;;;9.64;54.96
36222;BME280;22266;52.340;4.962;2023-04-28T04:26:11;101076.50;;;9.63;54.72
36222;BME280;22266;52.340;4.962;2023-04-28T04:28:38;101082.91;;;9.62;55.11
36222;BME280;22266;52.340;4.962;2023-04-28T04:31:06;101086.88;;;9.66;54.46
36222;BME280;22266;52.340;4.962;2023-04-28T04:33:34;101085.22;;;9.65;54.57
36222;BME280;22266;52.340;4.962;2023-04-28T04:36:01;101072.13;;;9.62;54.08
36222;BME280;22266;52.340;4.962;2023-04-28T04:38:28;101084.75;;;9.61;54.89
36222;BME280;22266;52.340;4.962;2023-04-28T04:40:55;101071.13;;;9.63;54.83
36222;BME280;22266;52.340;4.962;2023-04-28T04:43:22;101068.72;;;9.68;54.93
36222;BME280;22266;52.340;4.962;2023-04-28T04:45:49;101066.69;;;9.70;54.92
36222;BME280;22266;52.340;4.962;2023-04-28T04:48:16;101068.19;;;9.73;54.17
36222;BME280;22266;52.340;4.962;2023-04-28T04:50:44;101062.97;;;9.71;55.00
36222;BME280;22266;52.340;4.962;2023-04-28T04:53:11;101067.63;;;9.77;54.94
36222;BME280;22266;52.340;4.962;2023-04-28T04:55:42;101062.81;;;9.73;54.55
36222;BME280;22266;52.340;4.962;2023-04-28T04:58:09;101070.41;;;9.69;54.98
36222;BME280;22266;52.340;4.962;2023-04-28T05:00:44;101061.94;;;9.72;54.57
36222;BME280;22266;52.340;4.962;2023-04-28T05:03:11;101050.75;;;9.69;54.75
36222;BME280;22266;52.340;4.962;2023-04-28T05:05:40;101057.13;;;9.68;55.25
36222;BME280;22266;52.340;4.962;2023-04-28T05:08:11;101072.06;;;9.70;54.75
36222;BME280;22266;52.340;4.962;2023-04-28T05:10:39;101079.56;;;9.75;54.42
36222;BME280;22266;52.340;4.962;2023-04-28T05:13:05;101077.72;;;9.75;55.30
36222;BME280;22266;52.340;4.962;2023-04-28T05:15:32;101087.09;;;9.79;55.04
36222;BME280;22266;52.340;4.962;2023-04-28T05:18:17;101095.00;;;9.81;55.64
36222;BME280;22266;52.340;4.962;2023-04-28T05:20:44;101085.69;;;9.83;56.30
36222;BME280;22266;52.340;4.962;2023-04-28T05:23:11;101067.56;;;9.85;56.57
36222;BME280;22266;52.340;4.962;2023-04-28T05:25:38;101041.38;;;9.79;57.42
36222;BME280;22266;52.340;4.962;2023-04-28T05:28:08;101031.38;;;9.73;59.10
36222;BME280;22266;52.340;4.962;2023-04-28T05:30:34;101000.50;;;9.69;59.49
36222;BME280;22266;52.340;4.962;2023-04-28T05:33:01;100975.47;;;9.54;60.42
36222;BME280;22266;52.340;4.962;2023-04-28T05:35:28;100954.16;;;9.37;61.15
36222;BME280;22266;52.340;4.962;2023-04-28T05:37:57;100945.84;;;9.09;62.46
36222;BME280;22266;52.340;4.962;2023-04-28T05:40:24;100927.84;;;8.95;63.12
36222;BME280;22266;52.340;4.962;2023-04-28T05:42:52;100929.06;;;8.70;63.96
36222;BME280;22266;52.340;4.962;2023-04-28T05:45:18;100937.84;;;8.63;64.55
36222;BME280;22266;52.340;4.962;2023-04-28T05:47:45;100944.34;;;8.69;66.09
36222;BME280;22266;52.340;4.962;2023-04-28T05:50:12;100957.75;;;8.69;65.38
36222;BME280;22266;52.340;4.962;2023-04-28T05:52:39;100976.69;;;8.76;66.25
36222;BME280;22266;52.340;4.962;2023-04-28T05:55:07;101004.44;;;8.83;66.74
36222;BME280;22266;52.340;4.962;2023-04-28T05:57:34;101034.06;;;8.98;67.00
36222;BME280;22266;52.340;4.962;2023-04-28T06:00:18;101037.63;;;9.13;66.43
36222;BME280;22266;52.340;4.962;2023-04-28T06:02:44;101041.56;;;9.25;65.99
36222;BME280;22266;52.340;4.962;2023-04-28T06:05:11;101035.84;;;9.28;66.01
36222;BME280;22266;52.340;4.962;2023-04-28T06:07:39;101031.31;;;9.29;65.63
36222;BME280;22266;52.340;4.962;2023-04-28T06:10:07;101032.78;;;9.31;65.23
36222;BME280;22266;52.340;4.962;2023-04-28T06:12:35;101032.13;;;9.29;65.53
36222;BME280;22266;52.340;4.962;2023-04-28T06:15:02;101040.81;;;9.31;65.30
36222;BME280;22266;52.340;4.962;2023-04-28T06:17:29;101043.84;;;9.36;65.38
36222;BME280;22266;52.340;4.962;2023-04-28T06:19:58;101046.25;;;9.46;65.27
36222;BME280;22266;52.340;4.962;2023-04-28T06:22:25;101045.34;;;9.54;65.49
36222;BME280;22266;52.340;4.962;2023-04-28T06:24:51;101044.59;;;9.60;65.31
36222;BME280;22266;52.340;4.962;2023-04-28T06:27:25;101042.56;;;9.62;65.46
36222;BME280;22266;52.340;4.962;2023-04-28T06:29:51;101044.59;;;9.60;65.02
36222;BME280;22266;52.340;4.962;2023-04-28T06:32:18;101037.56;;;9.59;65.71
36222;BME280;22266;52.340;4.962;2023-04-28T06:34:45;101048.31;;;9.59;65.23
36222;BME280;22266;52.340;4.962;2023-04-28T06:37:12;101047.28;;;9.60;65.39
36222;BME280;22266;52.340;4.962;2023-04-28T06:39:39;101040.91;;;9.61;65.40
36222;BME280;22266;52.340;4.962;2023-04-28T06:42:06;101040.81;;;9.54;65.60
36222;BME280;22266;52.340;4.962;2023-04-28T06:44:35;101034.03;;;9.58;65.23
36222;BME280;22266;52.340;4.962;2023-04-28T06:47:02;101024.88;;;9.53;65.61
36222;BME280;22266;52.340;4.962;2023-04-28T06:49:28;101022.53;;;9.50;66.12
36222;BME280;22266;52.340;4.962;2023-04-28T06:51:58;101021.50;;;9.51;65.96
36222;BME280;22266;52.340;4.962;2023-04-28T06:54:28;101025.88;;;9.52;66.11
36222;BME280;22266;52.340;4.962;2023-04-28T06:56:55;101019.50;;;9.53;66.65
36222;BME280;22266;52.340;4.962;2023-04-28T06:59:23;101022.81;;;9.55;66.23
36222;BME280;22266;52.340;4.962;2023-04-28T07:01:49;101022.66;;;9.56;66.58
36222;BME280;22266;52.340;4.962;2023-04-28T07:04:15;101014.47;;;9.50;66.25
36222;BME280;22266;52.340;4.962;2023-04-28T07:06:43;101014.69;;;9.48;66.95
36222;BME280;22266;52.340;4.962;2023-04-28T07:09:09;101007.91;;;9.52;66.96
36222;BME280;22266;52.340;4.962;2023-04-28T07:11:36;101001.16;;;9.56;66.83
36222;BME280;22266;52.340;4.962;2023-04-28T07:14:05;100997.53;;;9.64;67.89
36222;BME280;22266;52.340;4.962;2023-04-28T07:16:33;100990.59;;;9.70;67.48
36222;BME280;22266;52.340;4.962;2023-04-28T07:19:01;100985.69;;;9.73;67.64
36222;BME280;22266;52.340;4.962;2023-04-28T07:21:27;100984.47;;;9.76;67.56
36222;BME280;22266;52.340;4.962;2023-04-28T07:23:54;100985.50;;;9.75;66.97
36222;BME280;22266;52.340;4.962;2023-04-28T07:26:22;100980.94;;;9.75;67.11
36222;BME280;22266;52.340;4.962;2023-04-28T07:28:49;100993.44;;;9.68;67.40
36222;BME280;22266;52.340;4.962;2023-04-28T07:31:15;101004.31;;;9.75;68.07
36222;BME280;22266;52.340;4.962;2023-04-28T07:33:42;101005.97;;;9.76;67.67
36222;BME280;22266;52.340;4.962;2023-04-28T07:36:08;100997.75;;;9.77;68.19
36222;BME280;22266;52.340;4.962;2023-04-28T07:38:35;100995.03;;;9.77;68.72
36222;BME280;22266;52.340;4.962;2023-04-28T07:41:02;100994.50;;;9.82;68.36
36222;BME280;22266;52.340;4.962;2023-04-28T07:43:29;100995.78;;;9.86;68.29
36222;BME280;22266;52.340;4.962;2023-04-28T07:45:56;100995.59;;;9.87;68.89
36222;BME280;22266;52.340;4.962;2023-04-28T07:48:23;100996.25;;;9.89;68.32
36222;BME280;22266;52.340;4.962;2023-04-28T07:50:49;100999.31;;;9.86;68.53
36222;BME280;22266;52.340;4.962;2023-04-28T07:53:16;100991.13;;;9.95;68.69
36222;BME280;22266;52.340;4.962;2023-04-28T07:55:43;100996.41;;;10.03;68.60
36222;BME280;22266;52.340;4.962;2023-04-28T07:58:11;100997.44;;;10.02;68.61
36222;BME280;22266;52.340;4.962;2023-04-28T08:00:38;100994.75;;;10.02;68.47
36222;BME280;22266;52.340;4.962;2023-04-28T08:03:06;100994.41;;;10.05;68.65
36222;BME280;22266;52.340;4.962;2023-04-28T08:05:33;100985.03;;;10.01;68.54
36222;BME280;22266;52.340;4.962;2023-04-28T08:07:59;100995.22;;;10.05;68.88
36222;BME280;22266;52.340;4.962;2023-04-28T08:10:27;100991.88;;;10.03;68.90
36222;BME280;22266;52.340;4.962;2023-04-28T08:12:53;100990.00;;;10.04;68.89
36222;BME280;22266;52.340;4.962;2023-04-28T08:15:20;100989.44;;;10.08;69.08
36222;BME280;22266;52.340;4.962;2023-04-28T08:17:46;100985.66;;;10.03;69.42
36222;BME280;22266;52.340;4.962;2023-04-28T08:20:13;100982.34;;;10.01;69.95
36222;BME280;22266;52.340;4.962;2023-04-28T08:22:46;100982.78;;;10.04;70.22
36222;BME280;22266;52.340;4.962;2023-04-28T08:25:13;100986.13;;;10.06;70.42
36222;BME280;22266;52.340;4.962;2023-04-28T08:27:39;100986.75;;;10.08;70.27
36222;BME280;22266;52.340;4.962;2023-04-28T08:30:07;100976.47;;;10.12;71.20
36222;BME280;22266;52.340;4.962;2023-04-28T08:32:34;100980.44;;;10.16;70.98
36222;BME280;22266;52.340;4.962;2023-04-28T08:35:01;100977.66;;;10.24;71.71
36222;BME280;22266;52.340;4.962;2023-04-28T08:37:27;100975.16;;;10.23;71.28
36222;BME280;22266;52.340;4.962;2023-04-28T08:39:53;100977.00;;;10.22;72.22
36222;BME280;22266;52.340;4.962;2023-04-28T08:42:28;100971.44;;;10.24;72.10
36222;BME280;22266;52.340;4.962;2023-04-28T08:44:56;100971.19;;;10.33;72.91
36222;BME280;22266;52.340;4.962;2023-04-28T08:47:36;100963.00;;;10.42;73.07
36222;BME280;22266;52.340;4.962;2023-04-28T08:50:05;100966.97;;;10.46;73.33
36222;BME280;22266;52.340;4.962;2023-04-28T08:52:34;100968.25;;;10.50;73.24
36222;BME280;22266;52.340;4.962;2023-04-28T08:55:11;100963.75;;;10.57;73.00
36222;BME280;22266;52.340;4.962;2023-04-28T08:57:46;100967.72;;;10.61;73.06
36222;BME280;22266;52.340;4.962;2023-04-28T09:00:14;100960.94;;;10.65;73.45
36222;BME280;22266;52.340;4.962;2023-04-28T09:02:41;100962.81;;;10.64;73.82
36222;BME280;22266;52.340;4.962;2023-04-28T09:05:12;100962.44;;;10.68;73.83
36222;BME280;22266;52.340;4.962;2023-04-28T09:07:40;100961.84;;;10.72;74.22
36222;BME280;22266;52.340;4.962;2023-04-28T09:10:21;100952.56;;;10.75;74.15
36222;BME280;22266;52.340;4.962;2023-04-28T09:12:51;100962.97;;;10.78;74.84
36222;BME280;22266;52.340;4.962;2023-04-28T09:15:32;100960.44;;;10.76;74.73
36222;BME280;22266;52.340;4.962;2023-04-28T09:18:01;100963.38;;;10.81;75.97
36222;BME280;22266;52.340;4.962;2023-04-28T09:20:29;100962.16;;;10.84;76.17
36222;BME280;22266;52.340;4.962;2023-04-28T09:23:18;100957.44;;;10.86;77.00
36222;BME280;22266;52.340;4.962;2023-04-28T09:25:57;100947.28;;;10.88;77.18
36222;BME280;22266;52.340;4.962;2023-04-28T09:28:24;100947.75;;;10.92;77.50
36222;BME280;22266;52.340;4.962;2023-04-28T09:30:51;100946.13;;;10.97;78.11
36222;BME280;22266;52.340;4.962;2023-04-28T09:33:17;100947.00;;;11.04;78.51
36222;BME280;22266;52.340;4.962;2023-04-28T09:35:44;100942.69;;;11.10;78.38
36222;BME280;22266;52.340;4.962;2023-04-28T09:38:12;100942.97;;;11.15;79.07
36222;BME280;22266;52.340;4.962;2023-04-28T09:43:33;100943.50;;;11.32;79.04
36222;BME280;22266;52.340;4.962;2023-04-28T09:46:04;100941.03;;;11.37;79.30
36222;BME280;22266;52.340;4.962;2023-04-28T09:48:35;100946.44;;;11.37;79.37
36222;BME280;22266;52.340;4.962;2023-04-28T09:51:05;100945.22;;;11.39;79.69
36222;BME280;22266;52.340;4.962;2023-04-28T09:53:32;100936.75;;;11.43;79.60
36222;BME280;22266;52.340;4.962;2023-04-28T09:56:02;100939.03;;;11.46;79.78
36222;BME280;22266;52.340;4.962;2023-04-28T09:58:30;100936.31;;;11.46;80.22
36222;BME280;22266;52.340;4.962;2023-04-28T10:00:59;100938.19;;;11.45;80.26
36222;BME280;22266;52.340;4.962;2023-04-28T10:03:28;100941.31;;;11.49;80.93
36222;BME280;22266;52.340;4.962;2023-04-28T10:05:57;100941.78;;;11.52;81.03
36222;BME280;22266;52.340;4.962;2023-04-28T10:08:25;100942.81;;;11.58;81.19
36222;BME280;22266;52.340;4.962;2023-04-28T10:10:53;100942.88;;;11.64;81.22
36222;BME280;22266;52.340;4.962;2023-04-28T10:13:21;100943.09;;;11.70;81.15
36222;BME280;22266;52.340;4.962;2023-04-28T10:15:49;100934.84;;;11.71;81.34
36222;BME280;22266;52.340;4.962;2023-04-28T10:18:16;100932.38;;;11.76;81.60
36222;BME280;22266;52.340;4.962;2023-04-28T10:20:44;100934.47;;;11.81;81.53
36222;BME280;22266;52.340;4.962;2023-04-28T10:25:48;100933.88;;;11.85;82.27
36222;BME280;22266;52.340;4.962;2023-04-28T10:28:18;100932.28;;;11.91;82.27
36222;BME280;22266;52.340;4.962;2023-04-28T10:31:11;100933.72;;;11.94;82.28
36222;BME280;22266;52.340;4.962;2023-04-28T10:33:39;100924.59;;;11.95;82.72
36222;BME280;22266;52.340;4.962;2023-04-28T10:36:07;100934.78;;;11.99;82.40
36222;BME280;22266;52.340;4.962;2023-04-28T10:38:34;100938.31;;;12.00;82.47
36222;BME280;22266;52.340;4.962;2023-04-28T10:41:01;100936.84;;;11.97;82.71
36222;BME280;22266;52.340;4.962;2023-04-28T10:58:39;100937.53;;;12.12;83.45
36222;BME280;22266;52.340;4.962;2023-04-28T11:06:34;100932.31;;;12.11;84.23
36222;BME280;22266;52.340;4.962;2023-04-28T11:16:59;100921.16;;;12.27;84.58
36222;BME280;22266;52.340;4.962;2023-04-28T11:21:56;100916.00;;;12.32;84.44
36222;BME280;22266;52.340;4.962;2023-04-28T11:24:23;100915.00;;;12.40;84.63
36222;BME280;22266;52.340;4.962;2023-04-28T11:26:57;100912.50;;;12.45;84.85
36222;BME280;22266;52.340;4.962;2023-04-28T11:29:35;100913.78;;;12.56;84.60
36222;BME280;22266;52.340;4.962;2023-04-28T11:32:05;100919.16;;;12.62;84.92
36222;BME280;22266;52.340;4.962;2023-04-28T11:34:33;100907.13;;;12.72;85.00
36222;BME280;22266;52.340;4.962;2023-04-28T11:37:00;100920.25;;;12.81;84.81
36222;BME280;22266;52.340;4.962;2023-04-28T11:39:31;100916.28;;;12.84;84.80
36222;BME280;22266;52.340;4.962;2023-04-28T11:42:00;100915.22;;;12.92;84.87
36222;BME280;22266;52.340;4.962;2023-04-28T11:44:29;100915.47;;;12.97;84.57
36222;BME280;22266;52.340;4.962;2023-04-28T11:46:57;100913.16;;;13.00;84.67
36222;BME280;22266;52.340;4.962;2023-04-28T11:49:30;100914.00;;;13.01;84.49
36222;BME280;22266;52.340;4.962;2023-04-28T11:52:05;100918.38;;;13.02;84.38
36222;BME280;22266;52.340;4.962;2023-04-28T11:54:33;100918.56;;;13.00;84.55
36222;BME280;22266;52.340;4.962;2023-04-28T11:57:00;100924.59;;;13.02;85.00
36222;BME280;22266;52.340;4.962;2023-04-28T11:59:31;100922.72;;;13.03;85.32
36222;BME280;22266;52.340;4.962;2023-04-28T12:02:08;100927.91;;;13.04;84.79
36222;BME280;22266;52.340;4.962;2023-04-28T12:04:36;100933.31;;;13.04;84.99
36222;BME280;22266;52.340;4.962;2023-04-28T12:09:32;100929.38;;;12.87;85.29
36222;BME280;22266;52.340;4.962;2023-04-28T12:12:01;100931.25;;;12.86;85.78
36222;BME280;22266;52.340;4.962;2023-04-28T12:14:29;100932.28;;;12.85;86.00
36222;BME280;22266;52.340;4.962;2023-04-28T12:16:57;100937.06;;;12.83;86.09
36222;BME280;22266;52.340;4.962;2023-04-28T12:19:24;100929.59;;;12.85;86.21
36222;BME280;22266;52.340;4.962;2023-04-28T12:22:20;100927.09;;;12.91;86.25
36222;BME280;22266;52.340;4.962;2023-04-28T12:25:07;100924.78;;;12.87;86.27
36222;BME280;22266;52.340;4.962;2023-04-28T12:27:35;100926.88;;;12.92;86.60
36222;BME280;22266;52.340;4.962;2023-04-28T12:32:46;100938.09;;;12.96;86.13
36222;BME280;22266;52.340;4.962;2023-04-28T12:35:13;100932.09;;;12.94;86.59
36222;BME280;22266;52.340;4.962;2023-04-28T12:37:43;100932.91;;;12.94;86.79
36222;BME280;22266;52.340;4.962;2023-04-28T12:40:10;100931.03;;;12.95;86.63
36222;BME280;22266;52.340;4.962;2023-04-28T12:42:36;100935.41;;;12.96;86.63
36222;BME280;22266;52.340;4.962;2023-04-28T12:45:03;100933.94;;;13.00;86.84
36222;BME280;22266;52.340;4.962;2023-04-28T12:47:31;100937.88;;;13.04;87.00
36222;BME280;22266;52.340;4.962;2023-04-28T12:49:57;100937.88;;;13.04;86.53
36222;BME280;22266;52.340;4.962;2023-04-28T12:52:23;100947.88;;;13.03;86.69
36222;BME280;22266;52.340;4.962;2023-04-28T12:54:50;100948.09;;;13.02;87.04
36222;BME280;22266;52.340;4.962;2023-04-28T12:57:18;100943.75;;;13.01;86.72
36222;BME280;22266;52.340;4.962;2023-04-28T12:59:45;100952.25;;;12.98;86.76
36222;BME280;22266;52.340;4.962;2023-04-28T13:02:13;100954.53;;;12.94;86.99
36222;BME280;22266;52.340;4.962;2023-04-28T13:04:41;100948.72;;;12.97;87.34
36222;BME280;22266;52.340;4.962;2023-04-28T13:07:08;100958.06;;;12.95;86.78
36222;BME280;22266;52.340;4.962;2023-04-28T13:09:35;100965.75;;;12.91;87.31
36222;BME280;22266;52.340;4.962;2023-04-28T13:12:03;100963.88;;;12.85;87.16
36222;BME280;22266;52.340;4.962;2023-04-28T13:14:30;100969.03;;;12.80;87.26
36222;BME280;22266;52.340;4.962;2023-04-28T13:16:57;100972.59;;;12.74;87.24
36222;BME280;22266;52.340;4.962;2023-04-28T13:19:24;100972.16;;;12.70;87.93
36222;BME280;22266;52.340;4.962;2023-04-28T13:21:51;100975.69;;;12.71;88.24
36222;BME280;22266;52.340;4.962;2023-04-28T13:24:17;100975.06;;;12.69;88.22
36222;BME280;22266;52.340;4.962;2023-04-28T13:26:44;100976.31;;;12.66;88.18
36222;BME280;22266;52.340;4.962;2023-04-28T13:29:10;100966.56;;;12.65;88.43
36222;BME280;22266;52.340;4.962;2023-04-28T13:31:37;100972.56;;;12.67;88.40
36222;BME280;22266;52.340;4.962;2023-04-28T13:34:03;100972.34;;;12.62;88.48
36222;BME280;22266;52.340;4.962;2023-04-28T13:36:31;100969.88;;;12.60;88.36
36222;BME280;22266;52.340;4.962;2023-04-28T13:38:58;100972.78;;;12.66;88.61
36222;BME280;22266;52.340;4.962;2023-04-28T13:41:27;100966.75;;;12.70;88.84